M/T Vemaoil Xi — 9HWD7 — position and weather

sailwx.info

Track history (hours):
 
Tides and Currents Weather Stations Pressure Air Temp Water Temp Dewpoint Dewpoint Depression Visibility Wind Speed Wind Dir Waves Ship Positions

M/T Vemaoil Xi

Last reported at 2016-Feb-11 20:33 UTC. Time now 2016-Feb-11 21:05 UTC.
Position N 35°52' E 014°36'.

Length 105 m; draft 6.6 m.

Type: Tanker. MMSI: 215631000.

Date/timePositionNaut miles runAvg speedWind from/ knotsBaromVisibWave heightAir tempDewpointWater temp
2016-Feb-11 20:33N 35°52' E 014°36'7 6.8
2016-Feb-11 19:33N 35°57' E 014°31'4 3.9
2016-Feb-11 18:32N 35°59' E 014°27'0 0.0
2016-Feb-11 17:32N 35°59' E 014°27'0 0.0
2016-Feb-11 16:32N 35°59' E 014°27'0 0.0
2016-Feb-11 15:29N 35°59' E 014°27'0 0.0
2016-Feb-11 14:32N 35°59' E 014°27'0 0.0
2016-Feb-11 13:32N 35°59' E 014°27'1 0.5
2016-Feb-11 12:31N 35°59' E 014°27'1 0.7
2016-Feb-11 11:31N 35°59' E 014°26'1 0.6
2016-Feb-11 10:33N 35°59' E 014°26'0 0.0
2016-Feb-11 09:33N 35°59' E 014°26'0 0.0
2016-Feb-11 08:33N 35°59' E 014°26'0 0.0
2016-Feb-11 07:33N 35°59' E 014°26'0 0.0
2016-Feb-11 06:33N 35°59' E 014°26'1 1.1
2016-Feb-11 05:33N 35°59' E 014°27'6 5.6
2016-Feb-11 04:33N 35°56' E 014°33'5 5.3
2016-Feb-11 03:32N 35°51' E 014°36'3 0.4
2016-Feb-10 19:11N 35°50' E 014°32'2 1.3
2016-Feb-10 17:27N 35°49' E 014°35'0 0.1
2016-Feb-10 16:29N 35°50' E 014°35'0 0.0
2016-Feb-10 15:33N 35°50' E 014°35'1 0.6
2016-Feb-10 14:29N 35°49' E 014°36'3 2.9
2016-Feb-10 13:33N 35°52' E 014°36'5 0.9
2016-Feb-10 08:18N 35°53' E 014°30'0 0.0
2016-Feb-10 07:30N 35°53' E 014°30'0 0.0
2016-Feb-10 06:24N 35°53' E 014°30'1 0.4
2016-Feb-10 03:21N 35°54' E 014°31'4 4.8
2016-Feb-10 02:33N 35°53' E 014°36'3 3.0
2016-Feb-10 01:33N 35°51' E 014°39'0 0.0
2016-Feb-10 00:33N 35°51' E 014°39'0 0.0
2016-Feb-09 23:33N 35°51' E 014°39'0 0.0
2016-Feb-09 22:33N 35°51' E 014°39'0 0.0
2016-Feb-09 21:34N 35°51' E 014°39'0 0.0
2016-Feb-09 20:33N 35°51' E 014°39'0 0.0
2016-Feb-09 19:29N 35°51' E 014°39'4 4.7
2016-Feb-09 18:33N 35°52' E 014°44'3 2.7
2016-Feb-09 17:23N 35°52' E 014°48'0 0.0
2016-Feb-09 16:26N 35°52' E 014°48'0 0.0
2016-Feb-09 08:33N 35°52' E 014°48'0 0.1
2016-Feb-09 07:32N 35°52' E 014°48'0 0.3
2016-Feb-09 06:33N 35°52' E 014°48'6 6.0
2016-Feb-09 05:33N 35°54' E 014°41'6 6.1
2016-Feb-09 04:33N 35°54' E 014°34'2 0.2
2016-Feb-08 17:16N 35°54' E 014°31'1 1.7
2016-Feb-08 16:33N 35°55' E 014°32'4 4.3
2016-Feb-08 15:32N 35°58' E 014°28'3 3.1
2016-Feb-08 14:33N 35°60' E 014°25'0 0.0
2016-Feb-08 13:33N 35°60' E 014°25'0 0.0
2016-Feb-08 12:33N 35°60' E 014°25'0 0.0
2016-Feb-08 11:33N 35°60' E 014°25'0 0.0
2016-Feb-08 10:33N 35°60' E 014°25'0 0.0
2016-Feb-08 09:33N 35°60' E 014°25'0 0.0
2016-Feb-08 08:33N 35°60' E 014°25'0 0.0
2016-Feb-08 07:33N 35°60' E 014°25'0 0.0
2016-Feb-08 06:33N 35°60' E 014°25'0 0.1
2016-Feb-08 05:33N 35°60' E 014°25'0 0.1
2016-Feb-08 04:33N 35°60' E 014°25'0 0.1
2016-Feb-08 03:33N 35°60' E 014°25'0 0.1
2016-Feb-08 02:33N 35°60' E 014°25'0 0.0
2016-Feb-08 01:33N 35°60' E 014°25'0 0.0
2016-Feb-08 00:33N 35°60' E 014°25'0 0.0
2016-Feb-07 23:33N 35°60' E 014°25'0 0.1
2016-Feb-07 22:33N 35°60' E 014°25'5 5.2
2016-Feb-07 21:33N 35°57' E 014°31'6 6.4
2016-Feb-07 20:32N 35°52' E 014°36'4 0.1
2016-Feb-06 09:13N 35°49' E 014°34'  
2016-Feb-04 03:06N 35°49' E 014°35'2 0.2
2016-Feb-03 17:25N 35°50' E 014°36'8 6.2
2016-Feb-03 16:05N 35°54' E 014°45'0 0.3
2016-Feb-03 15:33N 35°54' E 014°45'0 0.0
2016-Feb-03 14:33N 35°54' E 014°45'0 0.0
2016-Feb-03 08:26N 35°54' E 014°45'0 0.0
2016-Feb-03 04:29N 35°54' E 014°45'0 0.0
2016-Feb-03 03:26N 35°54' E 014°45'0 0.5
2016-Feb-03 02:31N 35°54' E 014°45'0 0.0
2016-Feb-03 01:33N 35°54' E 014°45'0 0.0
2016-Feb-03 00:33N 35°54' E 014°45'0 0.0
2016-Feb-02 23:21N 35°54' E 014°45'0 0.0
2016-Feb-02 22:32N 35°54' E 014°45'1 0.5
2016-Feb-02 21:13N 35°54' E 014°45'0 0.0
2016-Feb-02 20:25N 35°54' E 014°45'0 0.0
2016-Feb-02 19:04N 35°54' E 014°45'0 0.0
2016-Feb-02 18:29N 35°54' E 014°45'0 0.4
2016-Feb-02 17:15N 35°54' E 014°45'5 6.5
2016-Feb-02 16:33N 35°54' E 014°40'6 6.5
2016-Feb-02 15:33N 35°54' E 014°32'0 0.1
2016-Feb-02 10:33N 35°54' E 014°31'3 3.1
2016-Feb-02 09:33N 35°54' E 014°35'4 0.9
2016-Feb-02 05:29N 35°51' E 014°39'0 0.0
2016-Feb-02 03:20N 35°51' E 014°39'0 0.0
2016-Feb-02 02:08N 35°51' E 014°39'0 0.0
2016-Feb-02 01:32N 35°51' E 014°39'0 0.0
2016-Feb-02 00:32N 35°51' E 014°39'0 0.0
2016-Feb-01 23:32N 35°51' E 014°39'5 5.1
2016-Feb-01 22:33N 35°54' E 014°34'  
Track history (hours):
 
Tides and Currents Weather Stations Pressure Air Temp Water Temp Dewpoint Dewpoint Depression Visibility Wind Speed Wind Dir Waves Ship Positions

M/T Vemaoil Xi

Last reported at 2016-Feb-11 20:33 UTC. Time now 2016-Feb-11 21:05 UTC.
Position N 35°52' E 014°36'.

Length 105 m; draft 6.6 m.

Type: Tanker. MMSI: 215631000.

Date/timePositionNaut miles runAvg speedWind from/ knotsBaromVisibWave heightAir tempDewpointWater temp
2016-Feb-11 20:33N 35°52' E 014°36'7 6.8
2016-Feb-11 19:33N 35°57' E 014°31'4 3.9
2016-Feb-11 18:32N 35°59' E 014°27'0 0.0
2016-Feb-11 17:32N 35°59' E 014°27'0 0.0
2016-Feb-11 16:32N 35°59' E 014°27'0 0.0
2016-Feb-11 15:29N 35°59' E 014°27'0 0.0
2016-Feb-11 14:32N 35°59' E 014°27'0 0.0
2016-Feb-11 13:32N 35°59' E 014°27'1 0.5
2016-Feb-11 12:31N 35°59' E 014°27'1 0.7
2016-Feb-11 11:31N 35°59' E 014°26'1 0.6
2016-Feb-11 10:33N 35°59' E 014°26'0 0.0
2016-Feb-11 09:33N 35°59' E 014°26'0 0.0
2016-Feb-11 08:33N 35°59' E 014°26'0 0.0
2016-Feb-11 07:33N 35°59' E 014°26'0 0.0
2016-Feb-11 06:33N 35°59' E 014°26'1 1.1
2016-Feb-11 05:33N 35°59' E 014°27'6 5.6
2016-Feb-11 04:33N 35°56' E 014°33'5 5.3
2016-Feb-11 03:32N 35°51' E 014°36'3 0.4
2016-Feb-10 19:11N 35°50' E 014°32'2 1.3
2016-Feb-10 17:27N 35°49' E 014°35'0 0.1
2016-Feb-10 16:29N 35°50' E 014°35'0 0.0
2016-Feb-10 15:33N 35°50' E 014°35'1 0.6
2016-Feb-10 14:29N 35°49' E 014°36'3 2.9
2016-Feb-10 13:33N 35°52' E 014°36'5 0.9
2016-Feb-10 08:18N 35°53' E 014°30'0 0.0
2016-Feb-10 07:30N 35°53' E 014°30'0 0.0
2016-Feb-10 06:24N 35°53' E 014°30'1 0.4
2016-Feb-10 03:21N 35°54' E 014°31'4 4.8
2016-Feb-10 02:33N 35°53' E 014°36'3 3.0
2016-Feb-10 01:33N 35°51' E 014°39'0 0.0
2016-Feb-10 00:33N 35°51' E 014°39'0 0.0
2016-Feb-09 23:33N 35°51' E 014°39'0 0.0
2016-Feb-09 22:33N 35°51' E 014°39'0 0.0
2016-Feb-09 21:34N 35°51' E 014°39'0 0.0
2016-Feb-09 20:33N 35°51' E 014°39'0 0.0
2016-Feb-09 19:29N 35°51' E 014°39'4 4.7
2016-Feb-09 18:33N 35°52' E 014°44'3 2.7
2016-Feb-09 17:23N 35°52' E 014°48'0 0.0
2016-Feb-09 16:26N 35°52' E 014°48'0 0.0
2016-Feb-09 08:33N 35°52' E 014°48'0 0.1
2016-Feb-09 07:32N 35°52' E 014°48'0 0.3
2016-Feb-09 06:33N 35°52' E 014°48'6 6.0
2016-Feb-09 05:33N 35°54' E 014°41'6 6.1
2016-Feb-09 04:33N 35°54' E 014°34'2 0.2
2016-Feb-08 17:16N 35°54' E 014°31'1 1.7
2016-Feb-08 16:33N 35°55' E 014°32'4 4.3
2016-Feb-08 15:32N 35°58' E 014°28'3 3.1
2016-Feb-08 14:33N 35°60' E 014°25'0 0.0
2016-Feb-08 13:33N 35°60' E 014°25'0 0.0
2016-Feb-08 12:33N 35°60' E 014°25'0 0.0
2016-Feb-08 11:33N 35°60' E 014°25'0 0.0
2016-Feb-08 10:33N 35°60' E 014°25'0 0.0
2016-Feb-08 09:33N 35°60' E 014°25'0 0.0
2016-Feb-08 08:33N 35°60' E 014°25'0 0.0
2016-Feb-08 07:33N 35°60' E 014°25'0 0.0
2016-Feb-08 06:33N 35°60' E 014°25'0 0.1
2016-Feb-08 05:33N 35°60' E 014°25'0 0.1
2016-Feb-08 04:33N 35°60' E 014°25'0 0.1
2016-Feb-08 03:33N 35°60' E 014°25'0 0.1
2016-Feb-08 02:33N 35°60' E 014°25'0 0.0
2016-Feb-08 01:33N 35°60' E 014°25'0 0.0
2016-Feb-08 00:33N 35°60' E 014°25'0 0.0
2016-Feb-07 23:33N 35°60' E 014°25'0 0.1
2016-Feb-07 22:33N 35°60' E 014°25'5 5.2
2016-Feb-07 21:33N 35°57' E 014°31'6 6.4
2016-Feb-07 20:32N 35°52' E 014°36'4 0.1
2016-Feb-06 09:13N 35°49' E 014°34'  
2016-Feb-04 03:06N 35°49' E 014°35'2 0.2
2016-Feb-03 17:25N 35°50' E 014°36'8 6.2
2016-Feb-03 16:05N 35°54' E 014°45'0 0.3
2016-Feb-03 15:33N 35°54' E 014°45'0 0.0
2016-Feb-03 14:33N 35°54' E 014°45'0 0.0
2016-Feb-03 08:26N 35°54' E 014°45'0 0.0
2016-Feb-03 04:29N 35°54' E 014°45'0 0.0
2016-Feb-03 03:26N 35°54' E 014°45'0 0.5
2016-Feb-03 02:31N 35°54' E 014°45'0 0.0
2016-Feb-03 01:33N 35°54' E 014°45'0 0.0
2016-Feb-03 00:33N 35°54' E 014°45'0 0.0
2016-Feb-02 23:21N 35°54' E 014°45'0 0.0
2016-Feb-02 22:32N 35°54' E 014°45'1 0.5
2016-Feb-02 21:13N 35°54' E 014°45'0 0.0
2016-Feb-02 20:25N 35°54' E 014°45'0 0.0
2016-Feb-02 19:04N 35°54' E 014°45'0 0.0
2016-Feb-02 18:29N 35°54' E 014°45'0 0.4
2016-Feb-02 17:15N 35°54' E 014°45'5 6.5
2016-Feb-02 16:33N 35°54' E 014°40'6 6.5
2016-Feb-02 15:33N 35°54' E 014°32'0 0.1
2016-Feb-02 10:33N 35°54' E 014°31'3 3.1
2016-Feb-02 09:33N 35°54' E 014°35'4 0.9
2016-Feb-02 05:29N 35°51' E 014°39'0 0.0
2016-Feb-02 03:20N 35°51' E 014°39'0 0.0
2016-Feb-02 02:08N 35°51' E 014°39'0 0.0
2016-Feb-02 01:32N 35°51' E 014°39'0 0.0
2016-Feb-02 00:32N 35°51' E 014°39'0 0.0
2016-Feb-01 23:32N 35°51' E 014°39'5 5.1
2016-Feb-01 22:33N 35°54' E 014°34'  

Dump ship's entire track history